sensor_id;sensor_type;location;lat;lon;timestamp;temperature;humidity
28552;DHT22;15752;49.560;8.708;2023-02-15T00:00:15;5.50;99.90
28552;DHT22;15752;49.560;8.708;2023-02-15T00:02:44;5.40;99.90
28552;DHT22;15752;49.560;8.708;2023-02-15T00:05:13;5.40;99.90
28552;DHT22;15752;49.560;8.708;2023-02-15T00:07:42;5.40;99.90
28552;DHT22;15752;49.560;8.708;2023-02-15T00:10:11;5.40;99.90
28552;DHT22;15752;49.560;8.708;2023-02-15T00:12:39;5.40;99.90
28552;DHT22;15752;49.560;8.708;2023-02-15T00:15:08;5.60;99.90
28552;DHT22;15752;49.560;8.708;2023-02-15T00:17:38;5.40;99.90
28552;DHT22;15752;49.560;8.708;2023-02-15T00:20:07;5.30;99.90
28552;DHT22;15752;49.560;8.708;2023-02-15T00:22:36;5.30;99.90
28552;DHT22;15752;49.560;8.708;2023-02-15T00:25:06;5.30;99.90
28552;DHT22;15752;49.560;8.708;2023-02-15T00:27:35;5.30;99.90
28552;DHT22;15752;49.560;8.708;2023-02-15T00:30:04;5.20;99.90
28552;DHT22;15752;49.560;8.708;2023-02-15T00:32:33;5.20;99.90
28552;DHT22;15752;49.560;8.708;2023-02-15T00:35:02;5.20;99.90
28552;DHT22;15752;49.560;8.708;2023-02-15T00:37:30;5.20;99.90
28552;DHT22;15752;49.560;8.708;2023-02-15T00:39:59;5.40;99.90
28552;DHT22;15752;49.560;8.708;2023-02-15T00:42:30;5.20;99.90
28552;DHT22;15752;49.560;8.708;2023-02-15T00:44:59;5.20;99.90
28552;DHT22;15752;49.560;8.708;2023-02-15T00:47:28;5.20;99.90
28552;DHT22;15752;49.560;8.708;2023-02-15T00:49:56;5.20;99.90
28552;DHT22;15752;49.560;8.708;2023-02-15T00:52:24;5.20;99.90
28552;DHT22;15752;49.560;8.708;2023-02-15T00:54:53;5.20;99.90
28552;DHT22;15752;49.560;8.708;2023-02-15T00:57:21;5.20;99.90
28552;DHT22;15752;49.560;8.708;2023-02-15T00:59:51;5.20;99.90
28552;DHT22;15752;49.560;8.708;2023-02-15T01:02:19;5.20;99.90
28552;DHT22;15752;49.560;8.708;2023-02-15T01:04:47;5.20;99.90
28552;DHT22;15752;49.560;8.708;2023-02-15T01:07:16;5.20;99.90
28552;DHT22;15752;49.560;8.708;2023-02-15T01:09:44;5.20;99.90
28552;DHT22;15752;49.560;8.708;2023-02-15T01:12:12;5.20;99.90
28552;DHT22;15752;49.560;8.708;2023-02-15T01:14:41;5.20;99.90
28552;DHT22;15752;49.560;8.708;2023-02-15T01:17:11;5.20;99.90
28552;DHT22;15752;49.560;8.708;2023-02-15T01:19:39;5.50;99.90
28552;DHT22;15752;49.560;8.708;2023-02-15T01:22:07;5.20;99.90
28552;DHT22;15752;49.560;8.708;2023-02-15T01:24:36;5.20;99.90
28552;DHT22;15752;49.560;8.708;2023-02-15T01:27:04;5.50;99.90
28552;DHT22;15752;49.560;8.708;2023-02-15T01:29:32;5.20;99.90
28552;DHT22;15752;49.560;8.708;2023-02-15T01:32:01;5.50;99.90
28552;DHT22;15752;49.560;8.708;2023-02-15T01:34:31;5.20;99.90
28552;DHT22;15752;49.560;8.708;2023-02-15T01:37:00;5.20;99.90
28552;DHT22;15752;49.560;8.708;2023-02-15T01:39:28;5.20;99.90
28552;DHT22;15752;49.560;8.708;2023-02-15T01:41:56;5.20;99.90
28552;DHT22;15752;49.560;8.708;2023-02-15T01:44:47;5.20;99.90
28552;DHT22;15752;49.560;8.708;2023-02-15T01:47:23;5.20;99.90
28552;DHT22;15752;49.560;8.708;2023-02-15T01:50:02;5.20;99.90
28552;DHT22;15752;49.560;8.708;2023-02-15T01:52:37;5.50;99.90
28552;DHT22;15752;49.560;8.708;2023-02-15T01:55:10;5.20;99.90
28552;DHT22;15752;49.560;8.708;2023-02-15T01:57:40;5.20;99.90
28552;DHT22;15752;49.560;8.708;2023-02-15T02:00:09;5.20;99.90
28552;DHT22;15752;49.560;8.708;2023-02-15T02:02:39;5.20;99.90
28552;DHT22;15752;49.560;8.708;2023-02-15T02:05:09;5.20;99.90
28552;DHT22;15752;49.560;8.708;2023-02-15T02:07:40;5.20;99.90
28552;DHT22;15752;49.560;8.708;2023-02-15T02:10:12;5.30;99.90
28552;DHT22;15752;49.560;8.708;2023-02-15T02:12:42;5.20;99.90
28552;DHT22;15752;49.560;8.708;2023-02-15T02:15:12;5.30;99.90
28552;DHT22;15752;49.560;8.708;2023-02-15T02:17:52;5.10;99.90
28552;DHT22;15752;49.560;8.708;2023-02-15T02:20:43;5.20;99.90
28552;DHT22;15752;49.560;8.708;2023-02-15T02:23:30;5.20;99.90
28552;DHT22;15752;49.560;8.708;2023-02-15T02:26:51;5.20;99.90
28552;DHT22;15752;49.560;8.708;2023-02-15T02:36:03;5.20;99.90
28552;DHT22;15752;49.560;8.708;2023-02-15T02:38:45;5.20;99.90
28552;DHT22;15752;49.560;8.708;2023-02-15T02:41:24;5.30;99.90
28552;DHT22;15752;49.560;8.708;2023-02-15T02:44:07;5.10;99.90
28552;DHT22;15752;49.560;8.708;2023-02-15T02:46:47;5.10;99.90
28552;DHT22;15752;49.560;8.708;2023-02-15T02:49:30;5.10;99.90
28552;DHT22;15752;49.560;8.708;2023-02-15T02:51:59;5.10;99.90
28552;DHT22;15752;49.560;8.708;2023-02-15T02:54:29;5.10;99.90
28552;DHT22;15752;49.560;8.708;2023-02-15T02:57:01;5.10;99.90
28552;DHT22;15752;49.560;8.708;2023-02-15T02:59:34;5.10;99.90
28552;DHT22;15752;49.560;8.708;2023-02-15T03:02:07;5.10;99.90
28552;DHT22;15752;49.560;8.708;2023-02-15T03:04:43;5.10;99.90
28552;DHT22;15752;49.560;8.708;2023-02-15T03:07:17;5.10;99.90
28552;DHT22;15752;49.560;8.708;2023-02-15T03:09:51;5.40;99.90
28552;DHT22;15752;49.560;8.708;2023-02-15T03:12:22;5.10;99.90
28552;DHT22;15752;49.560;8.708;2023-02-15T03:14:57;5.10;99.90
28552;DHT22;15752;49.560;8.708;2023-02-15T03:17:32;5.10;99.90
28552;DHT22;15752;49.560;8.708;2023-02-15T03:20:07;5.10;99.90
28552;DHT22;15752;49.560;8.708;2023-02-15T03:22:41;5.10;99.90
28552;DHT22;15752;49.560;8.708;2023-02-15T03:25:17;5.10;99.90
28552;DHT22;15752;49.560;8.708;2023-02-15T03:27:51;5.10;99.90
28552;DHT22;15752;49.560;8.708;2023-02-15T03:30:22;5.10;99.90
28552;DHT22;15752;49.560;8.708;2023-02-15T03:32:56;5.10;99.90
28552;DHT22;15752;49.560;8.708;2023-02-15T03:35:35;5.10;99.90
28552;DHT22;15752;49.560;8.708;2023-02-15T03:38:07;5.10;99.90
28552;DHT22;15752;49.560;8.708;2023-02-15T03:40:38;5.10;99.90
28552;DHT22;15752;49.560;8.708;2023-02-15T03:43:37;5.40;99.90
28552;DHT22;15752;49.560;8.708;2023-02-15T03:46:15;5.10;99.90
28552;DHT22;15752;49.560;8.708;2023-02-15T03:48:49;5.10;99.90
28552;DHT22;15752;49.560;8.708;2023-02-15T03:51:23;5.10;99.90
28552;DHT22;15752;49.560;8.708;2023-02-15T03:54:05;5.10;99.90
28552;DHT22;15752;49.560;8.708;2023-02-15T03:56:36;5.10;99.90
28552;DHT22;15752;49.560;8.708;2023-02-15T03:59:06;5.10;99.90
28552;DHT22;15752;49.560;8.708;2023-02-15T04:02:01;5.10;99.90
28552;DHT22;15752;49.560;8.708;2023-02-15T04:04:36;5.10;99.90
28552;DHT22;15752;49.560;8.708;2023-02-15T04:07:08;5.20;99.90
28552;DHT22;15752;49.560;8.708;2023-02-15T04:09:36;5.40;99.90
28552;DHT22;15752;49.560;8.708;2023-02-15T04:12:23;5.10;99.90
28552;DHT22;15752;49.560;8.708;2023-02-15T04:14:51;5.20;99.90
28552;DHT22;15752;49.560;8.708;2023-02-15T04:17:37;5.20;99.90
28552;DHT22;15752;49.560;8.708;2023-02-15T04:20:07;5.20;99.90
28552;DHT22;15752;49.560;8.708;2023-02-15T04:22:55;5.10;99.90
28552;DHT22;15752;49.560;8.708;2023-02-15T04:25:41;5.10;99.90
28552;DHT22;15752;49.560;8.708;2023-02-15T04:28:09;5.20;99.90
28552;DHT22;15752;49.560;8.708;2023-02-15T04:30:37;5.10;99.90
28552;DHT22;15752;49.560;8.708;2023-02-15T04:33:06;5.10;99.90
28552;DHT22;15752;49.560;8.708;2023-02-15T04:35:34;5.10;99.90
28552;DHT22;15752;49.560;8.708;2023-02-15T04:38:03;5.30;99.90
28552;DHT22;15752;49.560;8.708;2023-02-15T04:40:32;5.40;99.90
28552;DHT22;15752;49.560;8.708;2023-02-15T04:43:00;5.10;99.90
28552;DHT22;15752;49.560;8.708;2023-02-15T04:45:28;5.10;99.90
28552;DHT22;15752;49.560;8.708;2023-02-15T04:47:57;5.10;99.90
28552;DHT22;15752;49.560;8.708;2023-02-15T04:50:25;5.10;99.90
28552;DHT22;15752;49.560;8.708;2023-02-15T04:52:54;5.10;99.90
28552;DHT22;15752;49.560;8.708;2023-02-15T04:55:24;5.10;99.90
28552;DHT22;15752;49.560;8.708;2023-02-15T04:57:53;5.10;99.90
28552;DHT22;15752;49.560;8.708;2023-02-15T05:00:22;5.10;99.90
28552;DHT22;15752;49.560;8.708;2023-02-15T05:02:50;5.10;99.90
28552;DHT22;15752;49.560;8.708;2023-02-15T05:05:18;5.10;99.90
28552;DHT22;15752;49.560;8.708;2023-02-15T05:07:47;5.10;99.90
28552;DHT22;15752;49.560;8.708;2023-02-15T05:10:15;5.30;99.90
28552;DHT22;15752;49.560;8.708;2023-02-15T05:12:45;5.10;99.90
28552;DHT22;15752;49.560;8.708;2023-02-15T05:15:13;5.10;99.90
28552;DHT22;15752;49.560;8.708;2023-02-15T05:17:42;5.10;99.90
28552;DHT22;15752;49.560;8.708;2023-02-15T05:20:10;5.40;99.90
28552;DHT22;15752;49.560;8.708;2023-02-15T05:22:39;5.10;99.90
28552;DHT22;15752;49.560;8.708;2023-02-15T05:25:08;5.10;99.90
28552;DHT22;15752;49.560;8.708;2023-02-15T05:27:56;5.10;99.90
28552;DHT22;15752;49.560;8.708;2023-02-15T05:30:42;5.10;99.90
28552;DHT22;15752;49.560;8.708;2023-02-15T05:33:10;5.10;99.90
28552;DHT22;15752;49.560;8.708;2023-02-15T05:35:39;5.10;99.90
28552;DHT22;15752;49.560;8.708;2023-02-15T05:38:07;5.10;99.90
28552;DHT22;15752;49.560;8.708;2023-02-15T05:40:35;5.10;99.90
28552;DHT22;15752;49.560;8.708;2023-02-15T05:43:05;5.10;99.90
28552;DHT22;15752;49.560;8.708;2023-02-15T05:45:33;5.20;99.90
28552;DHT22;15752;49.560;8.708;2023-02-15T05:48:02;5.20;99.90
28552;DHT22;15752;49.560;8.708;2023-02-15T05:50:30;5.20;99.90
28552;DHT22;15752;49.560;8.708;2023-02-15T05:52:59;5.20;99.90
28552;DHT22;15752;49.560;8.708;2023-02-15T05:55:27;5.20;99.90
28552;DHT22;15752;49.560;8.708;2023-02-15T05:57:55;5.20;99.90
28552;DHT22;15752;49.560;8.708;2023-02-15T06:00:25;5.10;99.90
28552;DHT22;15752;49.560;8.708;2023-02-15T06:02:53;5.10;99.90
28552;DHT22;15752;49.560;8.708;2023-02-15T06:05:22;5.20;99.90
28552;DHT22;15752;49.560;8.708;2023-02-15T06:07:50;5.10;99.90
28552;DHT22;15752;49.560;8.708;2023-02-15T06:10:19;5.10;99.90
28552;DHT22;15752;49.560;8.708;2023-02-15T06:12:47;5.10;99.90
28552;DHT22;15752;49.560;8.708;2023-02-15T06:15:16;5.10;99.90
28552;DHT22;15752;49.560;8.708;2023-02-15T06:17:46;5.10;99.90
28552;DHT22;15752;49.560;8.708;2023-02-15T06:20:14;5.10;99.90
28552;DHT22;15752;49.560;8.708;2023-02-15T06:22:42;5.10;99.90
28552;DHT22;15752;49.560;8.708;2023-02-15T06:25:11;5.10;99.90
28552;DHT22;15752;49.560;8.708;2023-02-15T06:27:41;5.10;99.90
28552;DHT22;15752;49.560;8.708;2023-02-15T06:30:11;5.10;99.90
28552;DHT22;15752;49.560;8.708;2023-02-15T06:32:40;5.00;99.90
28552;DHT22;15752;49.560;8.708;2023-02-15T06:35:10;5.10;99.90
28552;DHT22;15752;49.560;8.708;2023-02-15T06:37:39;5.00;99.90
28552;DHT22;15752;49.560;8.708;2023-02-15T06:40:08;5.00;99.90
28552;DHT22;15752;49.560;8.708;2023-02-15T06:42:37;5.00;99.90
28552;DHT22;15752;49.560;8.708;2023-02-15T06:45:05;5.20;99.90
28552;DHT22;15752;49.560;8.708;2023-02-15T06:47:34;5.00;99.90
28552;DHT22;15752;49.560;8.708;2023-02-15T06:50:03;5.00;99.90
28552;DHT22;15752;49.560;8.708;2023-02-15T06:52:34;5.00;99.90
28552;DHT22;15752;49.560;8.708;2023-02-15T06:55:02;4.90;99.90
28552;DHT22;15752;49.560;8.708;2023-02-15T06:57:31;5.00;99.90
28552;DHT22;15752;49.560;8.708;2023-02-15T07:00:00;5.10;99.90
28552;DHT22;15752;49.560;8.708;2023-02-15T07:02:28;5.00;99.90
28552;DHT22;15752;49.560;8.708;2023-02-15T07:04:57;5.00;99.90
28552;DHT22;15752;49.560;8.708;2023-02-15T07:07:25;5.00;99.90
28552;DHT22;15752;49.560;8.708;2023-02-15T07:09:55;5.00;99.90
28552;DHT22;15752;49.560;8.708;2023-02-15T07:12:23;5.00;99.90
28552;DHT22;15752;49.560;8.708;2023-02-15T07:15:10;5.00;99.90
28552;DHT22;15752;49.560;8.708;2023-02-15T07:17:40;5.00;99.90
28552;DHT22;15752;49.560;8.708;2023-02-15T07:20:10;5.00;99.90
28552;DHT22;15752;49.560;8.708;2023-02-15T07:22:40;5.00;99.90
28552;DHT22;15752;49.560;8.708;2023-02-15T07:25:11;5.00;99.90
28552;DHT22;15752;49.560;8.708;2023-02-15T07:27:40;5.00;99.90
28552;DHT22;15752;49.560;8.708;2023-02-15T07:30:11;5.00;99.90
28552;DHT22;15752;49.560;8.708;2023-02-15T07:32:42;5.00;99.90
28552;DHT22;15752;49.560;8.708;2023-02-15T07:35:24;5.00;99.90
28552;DHT22;15752;49.560;8.708;2023-02-15T07:37:54;5.00;99.90
28552;DHT22;15752;49.560;8.708;2023-02-15T07:40:23;5.30;99.90
28552;DHT22;15752;49.560;8.708;2023-02-15T07:42:52;5.00;99.90
28552;DHT22;15752;49.560;8.708;2023-02-15T07:45:22;5.00;99.90
28552;DHT22;15752;49.560;8.708;2023-02-15T07:47:50;5.00;99.90
28552;DHT22;15752;49.560;8.708;2023-02-15T07:50:18;5.30;99.90
28552;DHT22;15752;49.560;8.708;2023-02-15T07:52:47;5.00;99.90
28552;DHT22;15752;49.560;8.708;2023-02-15T07:55:15;5.20;99.90
28552;DHT22;15752;49.560;8.708;2023-02-15T07:57:48;5.00;99.90
28552;DHT22;15752;49.560;8.708;2023-02-15T08:00:18;5.30;99.90
28552;DHT22;15752;49.560;8.708;2023-02-15T08:02:51;5.00;99.90
28552;DHT22;15752;49.560;8.708;2023-02-15T08:05:35;5.00;99.90
28552;DHT22;15752;49.560;8.708;2023-02-15T08:08:04;5.30;99.90
28552;DHT22;15752;49.560;8.708;2023-02-15T08:10:32;5.10;99.90
28552;DHT22;15752;49.560;8.708;2023-02-15T08:13:20;5.30;99.90
28552;DHT22;15752;49.560;8.708;2023-02-15T08:15:48;5.10;99.90
28552;DHT22;15752;49.560;8.708;2023-02-15T08:18:17;5.10;99.90
28552;DHT22;15752;49.560;8.708;2023-02-15T08:20:49;5.10;99.90
28552;DHT22;15752;49.560;8.708;2023-02-15T08:23:17;5.10;99.90
28552;DHT22;15752;49.560;8.708;2023-02-15T08:25:46;5.20;99.90
28552;DHT22;15752;49.560;8.708;2023-02-15T08:28:14;5.30;99.90
28552;DHT22;15752;49.560;8.708;2023-02-15T08:30:44;5.10;99.90
28552;DHT22;15752;49.560;8.708;2023-02-15T08:33:12;5.20;99.90
28552;DHT22;15752;49.560;8.708;2023-02-15T08:35:40;5.20;99.90
28552;DHT22;15752;49.560;8.708;2023-02-15T08:38:09;5.20;99.90
28552;DHT22;15752;49.560;8.708;2023-02-15T08:40:37;5.20;99.90
28552;DHT22;15752;49.560;8.708;2023-02-15T08:43:05;5.20;99.90
28552;DHT22;15752;49.560;8.708;2023-02-15T08:45:34;5.20;99.90
28552;DHT22;15752;49.560;8.708;2023-02-15T08:48:04;5.20;99.90
28552;DHT22;15752;49.560;8.708;2023-02-15T08:50:32;5.30;99.90
28552;DHT22;15752;49.560;8.708;2023-02-15T08:53:01;5.30;99.90
28552;DHT22;15752;49.560;8.708;2023-02-15T08:55:30;5.30;99.90
28552;DHT22;15752;49.560;8.708;2023-02-15T08:57:58;5.30;99.90
28552;DHT22;15752;49.560;8.708;2023-02-15T09:00:27;5.30;99.90
28552;DHT22;15752;49.560;8.708;2023-02-15T09:02:55;5.30;99.90
28552;DHT22;15752;49.560;8.708;2023-02-15T09:05:25;5.60;99.90
28552;DHT22;15752;49.560;8.708;2023-02-15T09:07:53;5.40;99.90
28552;DHT22;15752;49.560;8.708;2023-02-15T09:10:22;5.30;99.90
28552;DHT22;15752;49.560;8.708;2023-02-15T09:12:50;5.30;99.90
28552;DHT22;15752;49.560;8.708;2023-02-15T09:15:19;5.40;99.90
28552;DHT22;15752;49.560;8.708;2023-02-15T09:17:48;5.40;99.90
28552;DHT22;15752;49.560;8.708;2023-02-15T09:20:16;5.40;99.90
28552;DHT22;15752;49.560;8.708;2023-02-15T09:22:46;5.40;99.90
28552;DHT22;15752;49.560;8.708;2023-02-15T09:25:15;5.40;99.90
28552;DHT22;15752;49.560;8.708;2023-02-15T09:27:43;5.40;99.90
28552;DHT22;15752;49.560;8.708;2023-02-15T09:30:12;5.40;99.90
28552;DHT22;15752;49.560;8.708;2023-02-15T09:32:41;5.50;99.90
28552;DHT22;15752;49.560;8.708;2023-02-15T09:35:10;5.50;99.90
28552;DHT22;15752;49.560;8.708;2023-02-15T09:37:38;5.40;99.90
28552;DHT22;15752;49.560;8.708;2023-02-15T09:40:08;5.40;99.90
28552;DHT22;15752;49.560;8.708;2023-02-15T09:42:53;5.50;99.90
28552;DHT22;15752;49.560;8.708;2023-02-15T09:45:40;5.50;99.90
28552;DHT22;15752;49.560;8.708;2023-02-15T09:48:33;5.50;99.90
28552;DHT22;15752;49.560;8.708;2023-02-15T09:51:25;5.50;99.90
28552;DHT22;15752;49.560;8.708;2023-02-15T09:54:17;5.50;99.90
28552;DHT22;15752;49.560;8.708;2023-02-15T09:56:58;5.80;99.90
28552;DHT22;15752;49.560;8.708;2023-02-15T09:59:37;5.60;99.90
28552;DHT22;15752;49.560;8.708;2023-02-15T10:02:24;5.60;99.90
28552;DHT22;15752;49.560;8.708;2023-02-15T10:05:14;5.60;99.90
28552;DHT22;15752;49.560;8.708;2023-02-15T10:08:20;5.60;99.90
28552;DHT22;15752;49.560;8.708;2023-02-15T10:11:06;5.70;99.90
28552;DHT22;15752;49.560;8.708;2023-02-15T10:14:08;5.70;99.90
28552;DHT22;15752;49.560;8.708;2023-02-15T10:16:53;5.70;99.90
28552;DHT22;15752;49.560;8.708;2023-02-15T10:19:34;6.10;99.90
28552;DHT22;15752;49.560;8.708;2023-02-15T10:22:19;5.80;99.90
28552;DHT22;15752;49.560;8.708;2023-02-15T10:25:07;5.90;99.90
28552;DHT22;15752;49.560;8.708;2023-02-15T10:27:45;5.90;99.90
28552;DHT22;15752;49.560;8.708;2023-02-15T10:30:21;5.90;99.90
28552;DHT22;15752;49.560;8.708;2023-02-15T10:32:59;5.90;99.90
28552;DHT22;15752;49.560;8.708;2023-02-15T10:35:36;6.00;99.90
28552;DHT22;15752;49.560;8.708;2023-02-15T10:38:22;6.00;99.90
28552;DHT22;15752;49.560;8.708;2023-02-15T10:41:03;6.00;99.90
28552;DHT22;15752;49.560;8.708;2023-02-15T10:43:56;6.10;99.90
28552;DHT22;15752;49.560;8.708;2023-02-15T10:46:45;6.10;99.90
28552;DHT22;15752;49.560;8.708;2023-02-15T10:52:41;6.20;99.90
28552;DHT22;15752;49.560;8.708;2023-02-15T10:55:20;6.20;99.90
28552;DHT22;15752;49.560;8.708;2023-02-15T10:57:58;6.20;99.90
28552;DHT22;15752;49.560;8.708;2023-02-15T11:00:37;6.20;99.90
28552;DHT22;15752;49.560;8.708;2023-02-15T11:03:26;6.30;99.90
28552;DHT22;15752;49.560;8.708;2023-02-15T11:06:04;6.30;99.90
28552;DHT22;15752;49.560;8.708;2023-02-15T11:08:37;6.30;99.90
28552;DHT22;15752;49.560;8.708;2023-02-15T11:11:11;6.30;99.90
28552;DHT22;15752;49.560;8.708;2023-02-15T11:13:45;6.30;99.90
28552;DHT22;15752;49.560;8.708;2023-02-15T11:16:18;6.30;99.90
28552;DHT22;15752;49.560;8.708;2023-02-15T11:18:54;6.30;99.90
28552;DHT22;15752;49.560;8.708;2023-02-15T11:21:26;6.50;99.90
28552;DHT22;15752;49.560;8.708;2023-02-15T11:23:57;6.50;99.90
28552;DHT22;15752;49.560;8.708;2023-02-15T11:26:31;6.70;99.90
28552;DHT22;15752;49.560;8.708;2023-02-15T11:29:08;6.40;99.90
28552;DHT22;15752;49.560;8.708;2023-02-15T11:31:43;6.40;99.90
28552;DHT22;15752;49.560;8.708;2023-02-15T11:34:20;6.40;99.90
28552;DHT22;15752;49.560;8.708;2023-02-15T11:36:53;6.40;99.90
28552;DHT22;15752;49.560;8.708;2023-02-15T11:39:24;6.50;99.90
28552;DHT22;15752;49.560;8.708;2023-02-15T11:41:57;6.40;99.90
28552;DHT22;15752;49.560;8.708;2023-02-15T11:44:31;6.70;99.90
28552;DHT22;15752;49.560;8.708;2023-02-15T11:47:01;6.50;99.90
28552;DHT22;15752;49.560;8.708;2023-02-15T11:49:32;6.50;99.90
28552;DHT22;15752;49.560;8.708;2023-02-15T11:52:05;6.80;99.90
28552;DHT22;15752;49.560;8.708;2023-02-15T11:54:36;6.50;99.90
28552;DHT22;15752;49.560;8.708;2023-02-15T11:57:15;6.50;99.90
28552;DHT22;15752;49.560;8.708;2023-02-15T11:59:52;6.50;99.90
28552;DHT22;15752;49.560;8.708;2023-02-15T12:02:24;6.50;99.90
28552;DHT22;15752;49.560;8.708;2023-02-15T12:04:58;6.50;99.90
28552;DHT22;15752;49.560;8.708;2023-02-15T12:07:31;6.50;99.90
28552;DHT22;15752;49.560;8.708;2023-02-15T12:10:05;6.60;99.90
28552;DHT22;15752;49.560;8.708;2023-02-15T12:12:43;6.60;99.90
28552;DHT22;15752;49.560;8.708;2023-02-15T12:15:12;6.70;99.90
28552;DHT22;15752;49.560;8.708;2023-02-15T12:17:49;6.90;99.90
28552;DHT22;15752;49.560;8.708;2023-02-15T12:20:25;6.70;99.90
28552;DHT22;15752;49.560;8.708;2023-02-15T12:23:00;6.70;99.90
28552;DHT22;15752;49.560;8.708;2023-02-15T12:25:35;6.70;99.90
28552;DHT22;15752;49.560;8.708;2023-02-15T12:28:20;6.70;99.90
28552;DHT22;15752;49.560;8.708;2023-02-15T12:30:52;6.80;99.90
28552;DHT22;15752;49.560;8.708;2023-02-15T12:33:27;6.80;99.90
28552;DHT22;15752;49.560;8.708;2023-02-15T12:36:02;6.80;99.90
28552;DHT22;15752;49.560;8.708;2023-02-15T12:38:34;6.80;99.90
28552;DHT22;15752;49.560;8.708;2023-02-15T12:41:04;6.90;99.90
28552;DHT22;15752;49.560;8.708;2023-02-15T12:43:37;6.90;99.90
28552;DHT22;15752;49.560;8.708;2023-02-15T12:46:22;6.90;99.90
28552;DHT22;15752;49.560;8.708;2023-02-15T12:49:06;6.90;99.90
28552;DHT22;15752;49.560;8.708;2023-02-15T12:51:49;6.90;99.90
28552;DHT22;15752;49.560;8.708;2023-02-15T12:54:39;6.90;99.90
28552;DHT22;15752;49.560;8.708;2023-02-15T12:57:29;7.00;99.90
28552;DHT22;15752;49.560;8.708;2023-02-15T12:59:59;7.00;99.90
28552;DHT22;15752;49.560;8.708;2023-02-15T13:02:35;7.00;99.90
28552;DHT22;15752;49.560;8.708;2023-02-15T13:05:17;7.00;99.90
28552;DHT22;15752;49.560;8.708;2023-02-15T13:07:51;7.00;99.90
28552;DHT22;15752;49.560;8.708;2023-02-15T13:10:24;7.10;99.90
28552;DHT22;15752;49.560;8.708;2023-02-15T13:12:55;7.10;99.90
28552;DHT22;15752;49.560;8.708;2023-02-15T13:15:28;7.10;99.90
28552;DHT22;15752;49.560;8.708;2023-02-15T13:17:59;7.40;99.90
28552;DHT22;15752;49.560;8.708;2023-02-15T13:20:30;7.10;99.90
28552;DHT22;15752;49.560;8.708;2023-02-15T13:23:03;7.20;99.90
28552;DHT22;15752;49.560;8.708;2023-02-15T13:25:44;7.20;99.90
28552;DHT22;15752;49.560;8.708;2023-02-15T13:28:19;7.20;99.90
28552;DHT22;15752;49.560;8.708;2023-02-15T13:30:51;7.20;99.90
28552;DHT22;15752;49.560;8.708;2023-02-15T13:33:25;7.30;99.90
28552;DHT22;15752;49.560;8.708;2023-02-15T13:36:03;7.30;99.90
28552;DHT22;15752;49.560;8.708;2023-02-15T13:38:49;7.30;99.90
28552;DHT22;15752;49.560;8.708;2023-02-15T13:41:27;7.30;99.90
28552;DHT22;15752;49.560;8.708;2023-02-15T13:44:08;7.30;99.90
28552;DHT22;15752;49.560;8.708;2023-02-15T13:46:55;7.40;99.90
28552;DHT22;15752;49.560;8.708;2023-02-15T13:49:42;7.40;99.90
28552;DHT22;15752;49.560;8.708;2023-02-15T13:52:19;7.40;99.90
28552;DHT22;15752;49.560;8.708;2023-02-15T13:55:06;7.40;99.90
28552;DHT22;15752;49.560;8.708;2023-02-15T13:58:09;7.40;99.90
28552;DHT22;15752;49.560;8.708;2023-02-15T14:00:50;7.40;99.90
28552;DHT22;15752;49.560;8.708;2023-02-15T14:03:47;7.50;99.90
28552;DHT22;15752;49.560;8.708;2023-02-15T14:06:36;7.50;99.90
28552;DHT22;15752;49.560;8.708;2023-02-15T14:09:23;7.50;99.90
28552;DHT22;15752;49.560;8.708;2023-02-15T14:12:19;7.50;99.90
28552;DHT22;15752;49.560;8.708;2023-02-15T14:15:08;7.50;99.90
28552;DHT22;15752;49.560;8.708;2023-02-15T14:17:51;7.70;99.90
28552;DHT22;15752;49.560;8.708;2023-02-15T14:20:36;7.60;99.90
28552;DHT22;15752;49.560;8.708;2023-02-15T14:23:18;7.60;99.90
28552;DHT22;15752;49.560;8.708;2023-02-15T14:26:00;7.60;99.90
28552;DHT22;15752;49.560;8.708;2023-02-15T14:28:39;7.90;99.90
28552;DHT22;15752;49.560;8.708;2023-02-15T14:31:13;7.90;99.90
28552;DHT22;15752;49.560;8.708;2023-02-15T14:33:49;7.70;99.90
28552;DHT22;15752;49.560;8.708;2023-02-15T14:36:36;7.70;99.90
28552;DHT22;15752;49.560;8.708;2023-02-15T14:39:25;7.70;99.90
28552;DHT22;15752;49.560;8.708;2023-02-15T14:42:18;7.70;99.90
28552;DHT22;15752;49.560;8.708;2023-02-15T14:44:57;7.70;99.90
28552;DHT22;15752;49.560;8.708;2023-02-15T14:47:33;7.90;99.90
28552;DHT22;15752;49.560;8.708;2023-02-15T14:50:36;7.70;99.90
28552;DHT22;15752;49.560;8.708;2023-02-15T14:53:36;7.70;99.90
28552;DHT22;15752;49.560;8.708;2023-02-15T14:56:22;7.70;99.90
28552;DHT22;15752;49.560;8.708;2023-02-15T14:59:14;7.70;99.90
28552;DHT22;15752;49.560;8.708;2023-02-15T15:01:55;7.80;99.90
28552;DHT22;15752;49.560;8.708;2023-02-15T15:04:29;7.80;99.90
28552;DHT22;15752;49.560;8.708;2023-02-15T15:07:02;7.80;99.90
28552;DHT22;15752;49.560;8.708;2023-02-15T15:09:38;7.70;99.90
28552;DHT22;15752;49.560;8.708;2023-02-15T15:12:35;8.00;99.90
28552;DHT22;15752;49.560;8.708;2023-02-15T15:15:10;8.00;99.90
28552;DHT22;15752;49.560;8.708;2023-02-15T15:17:58;7.80;99.90
28552;DHT22;15752;49.560;8.708;2023-02-15T15:20:42;8.00;99.90
28552;DHT22;15752;49.560;8.708;2023-02-15T15:23:43;7.80;99.90
28552;DHT22;15752;49.560;8.708;2023-02-15T15:26:27;7.80;99.90
28552;DHT22;15752;49.560;8.708;2023-02-15T15:28:59;8.10;99.90
28552;DHT22;15752;49.560;8.708;2023-02-15T15:31:41;7.80;99.90
28552;DHT22;15752;49.560;8.708;2023-02-15T15:40:55;7.80;99.90
28552;DHT22;15752;49.560;8.708;2023-02-15T15:43:41;8.00;99.90
28552;DHT22;15752;49.560;8.708;2023-02-15T15:46:58;8.00;99.90
28552;DHT22;15752;49.560;8.708;2023-02-15T15:49:38;7.80;99.90
28552;DHT22;15752;49.560;8.708;2023-02-15T15:52:12;7.80;99.90
28552;DHT22;15752;49.560;8.708;2023-02-15T15:54:45;8.10;99.90
28552;DHT22;15752;49.560;8.708;2023-02-15T15:57:18;7.70;99.90
28552;DHT22;15752;49.560;8.708;2023-02-15T15:59:49;7.80;99.90
28552;DHT22;15752;49.560;8.708;2023-02-15T16:02:17;7.70;99.90
28552;DHT22;15752;49.560;8.708;2023-02-15T16:04:47;7.70;99.90
28552;DHT22;15752;49.560;8.708;2023-02-15T16:07:24;7.70;99.90
28552;DHT22;15752;49.560;8.708;2023-02-15T16:09:55;7.70;99.90
28552;DHT22;15752;49.560;8.708;2023-02-15T16:12:25;8.00;99.90
28552;DHT22;15752;49.560;8.708;2023-02-15T16:14:56;7.70;99.90
28552;DHT22;15752;49.560;8.708;2023-02-15T16:17:26;7.70;99.90
28552;DHT22;15752;49.560;8.708;2023-02-15T16:20:03;7.60;99.90
28552;DHT22;15752;49.560;8.708;2023-02-15T16:22:35;7.60;99.90
28552;DHT22;15752;49.560;8.708;2023-02-15T16:25:27;7.60;99.90
28552;DHT22;15752;49.560;8.708;2023-02-15T16:28:06;7.60;99.90
28552;DHT22;15752;49.560;8.708;2023-02-15T16:30:36;7.60;99.90
28552;DHT22;15752;49.560;8.708;2023-02-15T16:33:07;7.50;99.90
28552;DHT22;15752;49.560;8.708;2023-02-15T16:35:39;7.80;99.90
28552;DHT22;15752;49.560;8.708;2023-02-15T16:38:10;7.70;99.90
28552;DHT22;15752;49.560;8.708;2023-02-15T16:40:46;7.80;99.90
28552;DHT22;15752;49.560;8.708;2023-02-15T16:43:23;7.50;99.90
28552;DHT22;15752;49.560;8.708;2023-02-15T16:45:59;7.70;99.90
28552;DHT22;15752;49.560;8.708;2023-02-15T16:48:33;7.50;99.90